createdAt,value
2023-04-15T00:00:04.335Z,9.32
2023-04-15T00:02:41.241Z,6.72
2023-04-15T00:05:11.223Z,8.75
2023-04-15T00:07:39.069Z,6.50
2023-04-15T00:10:08.207Z,8.48
2023-04-15T00:12:36.478Z,10.02
2023-04-15T00:15:05.246Z,9.60
2023-04-15T00:17:33.320Z,8.77
2023-04-15T00:20:01.546Z,6.20
2023-04-15T00:22:30.822Z,7.38
2023-04-15T00:24:59.082Z,6.55
2023-04-15T00:27:27.033Z,10.73
2023-04-15T00:29:55.022Z,8.30
2023-04-15T00:32:23.527Z,7.63
2023-04-15T00:34:51.669Z,7.15
2023-04-15T00:37:20.197Z,8.63
2023-04-15T00:39:50.447Z,7.43
2023-04-15T00:42:20.151Z,8.48
2023-04-15T00:44:51.058Z,7.83
2023-04-15T00:47:20.262Z,9.77
2023-04-15T00:49:48.122Z,8.98
2023-04-15T00:52:16.366Z,7.57
2023-04-15T00:54:44.239Z,7.25
2023-04-15T00:57:13.555Z,7.93
2023-04-15T00:59:41.509Z,9.35
2023-04-15T01:02:09.539Z,8.13
2023-04-15T01:04:37.744Z,12.05
2023-04-15T01:07:05.632Z,9.00
2023-04-15T01:09:33.850Z,8.87
2023-04-15T01:12:02.610Z,8.00
2023-04-15T01:14:33.113Z,7.68
2023-04-15T01:17:01.177Z,6.90
2023-04-15T01:19:29.644Z,7.70
2023-04-15T01:21:57.727Z,8.60
2023-04-15T01:24:28.154Z,9.52
2023-04-15T01:26:57.545Z,9.27
2023-04-15T01:29:25.764Z,6.38
2023-04-15T01:31:55.110Z,7.72
2023-04-15T01:34:23.624Z,8.43
2023-04-15T01:36:55.209Z,7.15
2023-04-15T01:39:23.464Z,7.53
2023-04-15T01:41:51.295Z,10.50
2023-04-15T01:44:20.460Z,9.02
2023-04-15T01:46:48.397Z,10.63
2023-04-15T01:49:17.008Z,7.47
2023-04-15T01:51:45.135Z,9.00
2023-04-15T01:54:14.385Z,8.70
2023-04-15T01:56:42.208Z,8.23
2023-04-15T01:59:10.887Z,10.40
2023-04-15T02:01:41.023Z,7.68
2023-04-15T02:04:16.467Z,10.52
2023-04-15T02:06:44.703Z,10.80
2023-04-15T02:09:13.426Z,7.53
2023-04-15T02:11:41.298Z,9.07
2023-04-15T02:14:09.493Z,13.40
2023-04-15T02:16:37.435Z,9.02
2023-04-15T02:19:06.705Z,8.13
2023-04-15T02:21:35.426Z,10.68
2023-04-15T02:24:04.394Z,9.23
2023-04-15T02:26:33.525Z,11.65
2023-04-15T02:29:01.633Z,10.30
2023-04-15T02:31:29.839Z,9.45
2023-04-15T02:33:57.909Z,10.82
2023-04-15T02:36:27.154Z,9.20
2023-04-15T02:38:55.064Z,10.05
2023-04-15T02:41:27.274Z,10.98
2023-04-15T02:43:55.403Z,9.20
2023-04-15T02:46:23.710Z,10.88
2023-04-15T02:48:53.306Z,11.60
2023-04-15T02:51:23.584Z,10.73
2023-04-15T02:53:52.972Z,9.40
2023-04-15T02:56:21.907Z,9.95
2023-04-15T02:58:50.824Z,10.63
2023-04-15T03:01:20.508Z,8.50
2023-04-15T03:03:48.947Z,11.43
2023-04-15T03:06:17.064Z,9.23
2023-04-15T03:08:45.246Z,13.05
2023-04-15T03:11:16.216Z,14.05
2023-04-15T03:13:44.677Z,12.73
2023-04-15T03:16:23.976Z,12.48
2023-04-15T03:18:52.578Z,9.32
2023-04-15T03:21:22.286Z,10.43
2023-04-15T03:23:50.430Z,10.07
2023-04-15T03:26:28.255Z,11.53
2023-04-15T03:28:59.755Z,10.75
2023-04-15T03:31:28.178Z,15.57
2023-04-15T03:33:56.063Z,12.98
2023-04-15T03:36:24.905Z,13.32
2023-04-15T03:38:53.045Z,11.53
2023-04-15T03:41:21.100Z,10.70
2023-04-15T03:43:52.065Z,11.32
2023-04-15T03:46:20.109Z,9.68
2023-04-15T03:48:48.262Z,10.70
2023-04-15T03:51:16.199Z,10.87
2023-04-15T03:53:44.047Z,10.07
2023-04-15T03:56:12.265Z,9.65
2023-04-15T03:58:40.282Z,16.42
2023-04-15T04:01:09.499Z,11.00
2023-04-15T04:03:37.968Z,8.57
2023-04-15T04:06:06.204Z,13.23
2023-04-15T04:08:34.652Z,12.57
2023-04-15T04:11:02.672Z,12.32
2023-04-15T04:13:30.570Z,9.45
2023-04-15T04:15:58.539Z,11.73
2023-04-15T04:18:27.998Z,9.93
2023-04-15T04:20:56.479Z,10.55
2023-04-15T04:23:24.409Z,10.05
2023-04-15T04:25:52.665Z,10.82
2023-04-15T04:28:20.612Z,10.87
2023-04-15T04:30:48.718Z,12.90
2023-04-15T04:33:16.658Z,12.07
2023-04-15T04:35:46.056Z,12.90
2023-04-15T04:38:13.994Z,13.15
2023-04-15T04:40:42.034Z,11.80
2023-04-15T04:43:10.074Z,12.30
2023-04-15T04:45:37.968Z,10.77
2023-04-15T04:48:07.207Z,16.02
2023-04-15T04:50:35.422Z,11.48
2023-04-15T04:53:04.612Z,11.50
2023-04-15T04:55:33.246Z,14.80
2023-04-15T04:58:01.334Z,10.63
2023-04-15T05:00:29.746Z,10.13
2023-04-15T05:02:58.759Z,12.38
2023-04-15T05:05:27.156Z,13.67
2023-04-15T05:07:55.344Z,11.20
2023-04-15T05:10:24.933Z,13.73
2023-04-15T05:12:52.970Z,12.02
2023-04-15T05:15:21.150Z,10.07
2023-04-15T05:17:49.230Z,15.67
2023-04-15T05:20:17.520Z,12.48
2023-04-15T05:22:45.620Z,14.27
2023-04-15T05:25:13.743Z,13.88
2023-04-15T05:27:43.237Z,10.35
2023-04-15T05:30:13.436Z,11.93
2023-04-15T05:32:41.894Z,12.07
2023-04-15T05:35:09.997Z,12.38
2023-04-15T05:37:37.919Z,10.60
2023-04-15T05:40:06.474Z,13.70
2023-04-15T05:42:34.546Z,14.33
2023-04-15T05:45:05.547Z,12.85
2023-04-15T05:47:33.797Z,13.63
2023-04-15T05:50:01.767Z,14.27
2023-04-15T05:52:29.717Z,13.68
2023-04-15T05:54:57.633Z,13.80
2023-04-15T05:57:25.951Z,14.23
2023-04-15T05:59:54.044Z,15.98
2023-04-15T06:02:23.952Z,11.70
2023-04-15T06:04:52.488Z,14.18
2023-04-15T06:07:20.596Z,14.47
2023-04-15T06:09:48.619Z,14.77
2023-04-15T06:12:17.093Z,12.95
2023-04-15T06:14:45.086Z,14.30
2023-04-15T06:17:15.018Z,19.42
2023-04-15T06:19:44.294Z,13.70
2023-04-15T06:22:12.174Z,14.07
2023-04-15T06:24:40.030Z,16.98
2023-04-15T06:27:08.447Z,15.75
2023-04-15T06:29:36.377Z,14.73
2023-04-15T06:32:04.229Z,12.47
2023-04-15T06:34:32.128Z,16.40
2023-04-15T06:37:01.663Z,15.80
2023-04-15T06:39:30.170Z,15.50
2023-04-15T06:41:58.247Z,17.27
2023-04-15T06:44:26.272Z,16.00
2023-04-15T06:46:54.536Z,16.83
2023-04-15T06:49:22.423Z,15.18
2023-04-15T06:51:51.485Z,15.75
2023-04-15T06:54:20.864Z,14.18
2023-04-15T06:56:48.824Z,13.70
2023-04-15T06:59:16.670Z,14.40
2023-04-15T07:01:44.565Z,14.00
2023-04-15T07:04:12.854Z,12.00
2023-04-15T07:06:41.892Z,12.82
2023-04-15T07:09:09.824Z,13.23
2023-04-15T07:11:39.121Z,12.13
2023-04-15T07:14:07.482Z,12.60
2023-04-15T07:16:35.570Z,11.45
2023-04-15T07:19:04.275Z,12.23
2023-04-15T07:21:32.429Z,13.57
2023-04-15T07:24:00.439Z,9.43
2023-04-15T07:26:28.489Z,10.45
2023-04-15T07:28:57.809Z,11.95
2023-04-15T07:31:25.732Z,8.55
2023-04-15T07:33:53.559Z,9.83
2023-04-15T07:36:21.476Z,8.05
2023-04-15T07:38:49.379Z,8.55
2023-04-15T07:41:17.399Z,13.20
2023-04-15T07:43:45.672Z,9.30
2023-04-15T07:46:15.518Z,8.47
2023-04-15T07:48:43.893Z,8.20
2023-04-15T07:51:13.110Z,7.00
2023-04-15T07:53:41.155Z,6.88
2023-04-15T07:56:09.274Z,7.00
2023-04-15T07:58:37.256Z,7.20
2023-04-15T08:01:06.543Z,7.45
2023-04-15T08:03:36.017Z,7.82
2023-04-15T08:06:04.585Z,7.90
2023-04-15T08:08:32.767Z,7.75
2023-04-15T08:11:03.968Z,7.07
2023-04-15T08:13:32.091Z,6.90
2023-04-15T08:16:19.995Z,6.93
2023-04-15T08:18:50.584Z,6.68
2023-04-15T08:21:19.783Z,8.38
2023-04-15T08:23:52.673Z,7.47
2023-04-15T08:26:21.679Z,7.00
2023-04-15T08:28:50.126Z,6.90
2023-04-15T08:31:19.831Z,8.75
2023-04-15T08:33:49.695Z,8.52
2023-04-15T08:36:17.802Z,7.37
2023-04-15T08:38:46.514Z,9.13
2023-04-15T08:41:22.543Z,9.48
2023-04-15T08:43:55.504Z,8.90
2023-04-15T08:46:24.050Z,7.65
2023-04-15T08:48:54.873Z,7.80
2023-04-15T08:51:24.908Z,8.93
2023-04-15T08:53:53.701Z,7.47
2023-04-15T08:56:26.470Z,7.78
2023-04-15T08:58:54.738Z,11.68
2023-04-15T09:01:23.548Z,9.73
2023-04-15T09:03:54.462Z,7.25
2023-04-15T09:06:23.207Z,8.35
2023-04-15T09:08:51.825Z,8.68
2023-04-15T09:11:20.464Z,9.23
2023-04-15T09:13:48.967Z,10.20
2023-04-15T09:16:16.877Z,7.93
2023-04-15T09:18:44.840Z,7.60
2023-04-15T09:21:16.273Z,9.93
2023-04-15T09:23:57.515Z,8.68
2023-04-15T09:26:36.842Z,8.67
2023-04-15T09:29:09.353Z,8.48
2023-04-15T09:31:37.876Z,10.45
2023-04-15T09:34:05.954Z,8.55
2023-04-15T09:36:52.706Z,7.68
2023-04-15T09:39:20.819Z,8.43
2023-04-15T09:41:48.672Z,9.38
2023-04-15T09:44:26.036Z,9.73
2023-04-15T09:46:54.101Z,8.70
2023-04-15T09:49:22.273Z,12.25
2023-04-15T09:52:04.594Z,11.97
2023-04-15T09:54:36.613Z,11.50
2023-04-15T09:57:09.865Z,11.02
2023-04-15T09:59:37.886Z,10.10
2023-04-15T10:02:07.814Z,7.20
2023-04-15T10:04:37.804Z,8.20
2023-04-15T10:07:07.737Z,6.57
2023-04-15T10:09:37.422Z,7.18
2023-04-15T10:12:06.495Z,8.07
2023-04-15T10:14:36.474Z,5.53
2023-04-15T10:17:06.041Z,7.67
2023-04-15T10:19:37.599Z,4.93
2023-04-15T10:22:07.842Z,6.13
2023-04-15T10:24:36.445Z,6.15
2023-04-15T10:27:05.535Z,3.97
2023-04-15T10:29:33.474Z,4.17
2023-04-15T10:32:02.506Z,4.70
2023-04-15T10:34:31.196Z,4.88
2023-04-15T10:37:04.575Z,4.00
2023-04-15T10:39:44.613Z,4.93
2023-04-15T10:42:13.871Z,7.47
2023-04-15T10:44:44.613Z,7.95
2023-04-15T10:47:14.196Z,5.55
2023-04-15T10:49:46.709Z,6.70
2023-04-15T10:52:16.593Z,9.80
2023-04-15T10:54:46.120Z,7.20
2023-04-15T10:57:22.517Z,4.90
2023-04-15T11:00:13.829Z,6.25
2023-04-15T11:02:45.130Z,6.68
2023-04-15T11:05:13.898Z,7.88
2023-04-15T11:07:49.759Z,6.13
2023-04-15T11:10:51.544Z,4.35
2023-04-15T11:13:23.550Z,7.53
2023-04-15T11:15:51.993Z,9.00
2023-04-15T11:18:22.188Z,5.72
2023-04-15T11:20:51.807Z,6.03
2023-04-15T11:23:20.615Z,4.70
2023-04-15T11:25:48.713Z,6.50
2023-04-15T11:28:16.769Z,7.35
2023-04-15T11:30:45.931Z,7.03
2023-04-15T11:33:14.113Z,6.10
2023-04-15T11:35:43.115Z,7.38
2023-04-15T11:38:13.892Z,5.25
2023-04-15T11:40:46.172Z,7.03
2023-04-15T11:43:15.883Z,6.25
2023-04-15T11:45:53.876Z,5.83
2023-04-15T11:48:25.711Z,5.60
2023-04-15T11:50:58.272Z,7.38
2023-04-15T11:53:41.000Z,6.30
2023-04-15T11:56:10.845Z,5.43
2023-04-15T11:58:40.139Z,6.57
2023-04-15T12:01:09.605Z,7.90
2023-04-15T12:03:42.513Z,6.82
2023-04-15T12:06:19.001Z,5.93
2023-04-15T12:08:55.223Z,6.93
2023-04-15T12:11:30.408Z,5.90
2023-04-15T12:14:01.050Z,5.63
2023-04-15T12:16:31.135Z,5.32
2023-04-15T12:19:00.632Z,10.27
2023-04-15T12:21:34.568Z,7.68
2023-04-15T12:24:04.826Z,8.90
2023-04-15T12:26:36.140Z,4.70
2023-04-15T12:29:05.030Z,6.53
2023-04-15T12:31:34.892Z,6.80
2023-04-15T12:34:03.484Z,6.57
2023-04-15T12:36:36.236Z,10.43
2023-04-15T12:39:05.227Z,7.78
2023-04-15T12:41:33.168Z,5.47
2023-04-15T12:44:01.472Z,7.10
2023-04-15T12:46:29.877Z,6.43
2023-04-15T12:48:59.316Z,10.13
2023-04-15T12:51:28.445Z,5.38
2023-04-15T12:53:56.327Z,7.82
2023-04-15T12:56:24.191Z,7.53
2023-04-15T12:58:52.550Z,4.40
2023-04-15T13:01:20.593Z,6.20
2023-04-15T13:03:50.467Z,8.52
2023-04-15T13:06:19.779Z,7.70
2023-04-15T13:08:57.448Z,5.10
2023-04-15T13:11:26.514Z,5.28
2023-04-15T13:13:54.356Z,3.87
2023-04-15T13:16:22.412Z,6.07
2023-04-15T13:18:50.652Z,3.45
2023-04-15T13:21:20.464Z,3.85
2023-04-15T13:23:52.318Z,3.17
2023-04-15T13:26:20.434Z,6.37
2023-04-15T13:28:48.405Z,5.53
2023-04-15T13:31:16.374Z,5.65
2023-04-15T13:33:44.243Z,6.95
2023-04-15T13:36:12.437Z,3.90
2023-04-15T13:38:41.707Z,3.37
2023-04-15T13:41:09.908Z,6.22
2023-04-15T13:43:41.038Z,7.50
2023-04-15T13:46:09.154Z,6.50
2023-04-15T13:48:37.096Z,8.82
2023-04-15T13:51:05.171Z,8.33
2023-04-15T13:53:38.458Z,7.05
2023-04-15T13:56:09.422Z,6.38
2023-04-15T13:58:37.710Z,7.93
2023-04-15T14:01:06.981Z,9.32
2023-04-15T14:03:36.901Z,7.47
2023-04-15T14:06:06.726Z,6.13
2023-04-15T14:08:35.000Z,6.47
2023-04-15T14:11:02.946Z,6.40
2023-04-15T14:13:32.149Z,4.20
2023-04-15T14:16:00.050Z,7.20
2023-04-15T14:18:28.297Z,10.95
2023-04-15T14:20:56.200Z,7.35
2023-04-15T14:23:24.438Z,5.70
2023-04-15T14:25:52.778Z,4.88
2023-04-15T14:28:20.667Z,6.47
2023-04-15T14:30:49.993Z,9.50
2023-04-15T14:33:18.166Z,6.07
2023-04-15T14:35:46.367Z,5.72
2023-04-15T14:38:14.176Z,5.50
2023-04-15T14:40:42.591Z,3.63
2023-04-15T14:43:10.539Z,10.15
2023-04-15T14:45:41.886Z,7.35
2023-04-15T14:48:12.987Z,6.10
2023-04-15T14:50:41.614Z,8.13
2023-04-15T14:53:09.470Z,7.50
2023-04-15T14:55:37.284Z,8.95
2023-04-15T14:58:05.130Z,6.88
2023-04-15T15:00:33.038Z,9.48
2023-04-15T15:03:01.709Z,5.35
2023-04-15T15:05:31.283Z,6.10
2023-04-15T15:07:59.407Z,7.90
2023-04-15T15:10:44.128Z,6.85
2023-04-15T15:13:18.012Z,8.13
2023-04-15T15:15:50.819Z,5.50
2023-04-15T15:18:19.889Z,8.13
2023-04-15T15:20:50.781Z,12.23
2023-04-15T15:23:19.425Z,9.15
2023-04-15T15:25:50.182Z,6.63
2023-04-15T15:28:19.916Z,6.45
2023-04-15T15:30:48.389Z,4.83
2023-04-15T15:33:18.100Z,4.90
2023-04-15T15:35:46.440Z,7.45
2023-04-15T15:38:19.566Z,8.30
2023-04-15T15:40:48.172Z,13.25
2023-04-15T15:43:16.493Z,5.27
2023-04-15T15:45:44.961Z,4.78
2023-04-15T15:48:12.979Z,10.43
2023-04-15T15:50:40.936Z,5.97
2023-04-15T15:53:12.429Z,4.10
2023-04-15T15:55:41.858Z,5.30
2023-04-15T15:58:11.569Z,9.15
2023-04-15T16:00:42.617Z,6.65
2023-04-15T16:03:10.722Z,9.48
2023-04-15T16:05:42.702Z,5.88
2023-04-15T16:08:10.865Z,5.73
2023-04-15T16:10:39.289Z,4.25
2023-04-15T16:13:08.771Z,5.95
2023-04-15T16:15:36.729Z,8.10
2023-04-15T16:18:04.908Z,11.15
2023-04-15T16:20:32.915Z,7.53
2023-04-15T16:23:01.977Z,11.70
2023-04-15T16:25:30.109Z,7.63
2023-04-15T16:28:05.584Z,6.68
2023-04-15T16:30:38.837Z,6.20
2023-04-15T16:33:07.780Z,7.03
2023-04-15T16:35:35.810Z,8.73
2023-04-15T16:38:04.053Z,5.85
2023-04-15T16:40:32.908Z,10.00
2023-04-15T16:43:01.117Z,8.43
2023-04-15T16:45:29.216Z,6.13
2023-04-15T16:47:58.725Z,4.60
2023-04-15T16:50:27.302Z,5.55
2023-04-15T16:52:56.021Z,8.25
2023-04-15T16:55:24.139Z,7.80
2023-04-15T16:58:02.418Z,5.93
2023-04-15T17:00:32.236Z,8.60
2023-04-15T17:03:02.033Z,5.90
2023-04-15T17:05:30.660Z,9.27
2023-04-15T17:07:58.866Z,6.88
2023-04-15T17:10:27.144Z,8.03
2023-04-15T17:12:57.043Z,6.20
2023-04-15T17:15:25.528Z,8.52
2023-04-15T17:17:53.633Z,6.05
2023-04-15T17:20:23.294Z,8.80
2023-04-15T17:22:51.295Z,6.07
2023-04-15T17:25:19.519Z,5.97
2023-04-15T17:27:47.509Z,3.85
2023-04-15T17:30:15.818Z,7.88
2023-04-15T17:32:43.692Z,6.93
2023-04-15T17:35:11.745Z,7.53
2023-04-15T17:37:41.509Z,9.73
2023-04-15T17:40:10.372Z,6.93
2023-04-15T17:42:38.129Z,6.53
2023-04-15T17:45:07.262Z,5.40
2023-04-15T17:47:35.227Z,4.53
2023-04-15T17:50:03.388Z,5.70
2023-04-15T17:52:31.248Z,5.82
2023-04-15T17:55:01.064Z,6.45
2023-04-15T17:57:31.449Z,7.32
2023-04-15T17:59:59.968Z,8.90
2023-04-15T18:02:28.488Z,12.52
2023-04-15T18:04:56.766Z,6.80
2023-04-15T18:07:26.088Z,7.35
2023-04-15T18:09:55.980Z,6.10
2023-04-15T18:12:26.838Z,4.40
2023-04-15T18:14:57.542Z,9.32
2023-04-15T18:17:25.879Z,7.55
2023-04-15T18:19:54.246Z,3.78
2023-04-15T18:22:22.350Z,5.25
2023-04-15T18:24:51.344Z,5.13
2023-04-15T18:27:19.436Z,8.68
2023-04-15T18:29:49.036Z,6.95
2023-04-15T18:32:18.757Z,10.32
2023-04-15T18:34:47.282Z,4.18
2023-04-15T18:37:16.635Z,2.80
2023-04-15T18:39:47.346Z,6.85
2023-04-15T18:42:15.888Z,5.78
2023-04-15T18:44:45.627Z,6.60
2023-04-15T18:47:16.274Z,3.65
2023-04-15T18:49:45.277Z,3.73
2023-04-15T18:52:26.320Z,8.43
2023-04-15T18:54:57.310Z,4.53
2023-04-15T18:57:31.355Z,4.85
2023-04-15T19:00:03.163Z,7.47
2023-04-15T19:02:32.740Z,6.23
2023-04-15T19:05:03.709Z,7.20
2023-04-15T19:07:32.290Z,4.18
2023-04-15T19:10:04.074Z,4.60
2023-04-15T19:12:32.125Z,5.85
2023-04-15T19:15:01.231Z,5.73
2023-04-15T19:17:29.442Z,6.55
2023-04-15T19:19:58.726Z,4.60
2023-04-15T19:22:27.267Z,4.00
2023-04-15T19:24:55.468Z,5.65
2023-04-15T19:27:23.680Z,6.70
2023-04-15T19:29:52.126Z,6.78
2023-04-15T19:32:21.629Z,9.15
2023-04-15T19:34:51.438Z,9.40
2023-04-15T19:37:21.303Z,7.00
2023-04-15T19:39:52.270Z,7.37
2023-04-15T19:42:21.444Z,6.63
2023-04-15T19:44:49.558Z,3.28
2023-04-15T19:47:18.375Z,6.43
2023-04-15T19:49:47.967Z,4.90
2023-04-15T19:52:16.958Z,5.73
2023-04-15T19:54:48.412Z,8.65
2023-04-15T19:57:16.617Z,6.35
2023-04-15T19:59:44.465Z,10.48
2023-04-15T20:02:13.559Z,5.00
2023-04-15T20:04:42.128Z,6.07
2023-04-15T20:07:10.985Z,8.23
2023-04-15T20:09:39.189Z,8.68
2023-04-15T20:12:48.638Z,10.55
2023-04-15T20:14:56.920Z,6.13
2023-04-15T20:17:25.534Z,5.37
2023-04-15T20:19:54.988Z,7.40
2023-04-15T20:22:23.058Z,6.75
2023-04-15T20:24:51.129Z,9.32
2023-04-15T20:27:21.920Z,6.07
2023-04-15T20:29:50.543Z,5.33
2023-04-15T20:32:19.075Z,7.30
2023-04-15T20:34:50.591Z,6.55
2023-04-15T20:37:19.042Z,8.95
2023-04-15T20:39:47.259Z,10.90
2023-04-15T20:42:16.497Z,7.07
2023-04-15T20:44:45.852Z,2.90
2023-04-15T20:47:15.315Z,5.85
2023-04-15T20:49:44.301Z,5.38
2023-04-15T20:52:15.722Z,6.78
2023-04-15T20:54:43.698Z,6.90
2023-04-15T20:57:11.523Z,6.97
2023-04-15T20:59:39.444Z,11.20
2023-04-15T21:02:08.865Z,8.27
2023-04-15T21:04:37.994Z,8.80
2023-04-15T21:07:08.896Z,6.90
2023-04-15T21:09:38.435Z,5.80
2023-04-15T21:12:06.544Z,9.05
2023-04-15T21:14:34.975Z,15.95
2023-04-15T21:17:10.017Z,8.68
2023-04-15T21:19:40.469Z,11.03
2023-04-15T21:22:09.923Z,8.98
2023-04-15T21:24:37.852Z,10.82
2023-04-15T21:27:05.925Z,9.82
2023-04-15T21:29:33.838Z,11.48
2023-04-15T21:32:01.755Z,9.20
2023-04-15T21:34:29.681Z,8.55
2023-04-15T21:36:58.880Z,9.70
2023-04-15T21:39:26.898Z,8.55
2023-04-15T21:41:54.914Z,11.02
2023-04-15T21:44:22.836Z,10.50
2023-04-15T21:46:51.764Z,10.10
2023-04-15T21:49:20.281Z,10.45
2023-04-15T21:51:51.159Z,15.85
2023-04-15T21:54:20.548Z,15.10
2023-04-15T21:56:49.823Z,11.73
2023-04-15T21:59:17.614Z,13.25
2023-04-15T22:01:45.610Z,13.75
2023-04-15T22:04:13.845Z,8.10
2023-04-15T22:06:41.958Z,9.30
2023-04-15T22:09:11.417Z,14.43
2023-04-15T22:11:42.798Z,11.93
2023-04-15T22:14:10.905Z,12.68
2023-04-15T22:16:38.859Z,10.82
2023-04-15T22:19:06.987Z,11.35
2023-04-15T22:21:35.324Z,12.77
2023-04-15T22:24:38.671Z,12.38
2023-04-15T22:26:52.750Z,15.18
2023-04-15T22:29:20.903Z,10.52
2023-04-15T22:31:49.072Z,11.70
2023-04-15T22:34:22.819Z,12.30
2023-04-15T22:36:51.732Z,15.68
2023-04-15T22:39:20.476Z,9.23
2023-04-15T22:41:48.638Z,12.57
2023-04-15T22:44:18.028Z,13.48
2023-04-15T22:46:45.870Z,13.50
2023-04-15T22:49:13.625Z,15.60
2023-04-15T22:51:41.541Z,19.30
2023-04-15T22:54:09.518Z,9.45
2023-04-15T22:56:37.532Z,15.27
2023-04-15T22:59:05.492Z,12.33
2023-04-15T23:01:34.776Z,15.13
2023-04-15T23:04:08.597Z,14.30
2023-04-15T23:06:50.873Z,12.32
2023-04-15T23:09:18.886Z,15.63
2023-04-15T23:11:46.853Z,13.17
2023-04-15T23:14:14.697Z,14.48
2023-04-15T23:16:45.508Z,15.23
2023-04-15T23:19:13.360Z,13.70
2023-04-15T23:21:41.357Z,13.73
2023-04-15T23:24:09.825Z,17.73
2023-04-15T23:26:37.659Z,13.23
2023-04-15T23:29:05.550Z,10.20
2023-04-15T23:31:33.401Z,14.52
2023-04-15T23:34:03.245Z,14.90
2023-04-15T23:36:31.957Z,11.77
2023-04-15T23:38:59.944Z,14.73
2023-04-15T23:41:27.971Z,15.75
2023-04-15T23:43:58.692Z,14.43
2023-04-15T23:46:27.231Z,12.52
2023-04-15T23:48:55.718Z,10.30
2023-04-15T23:51:27.494Z,17.40
2023-04-15T23:53:55.466Z,13.95
2023-04-15T23:56:23.671Z,18.10
2023-04-15T23:58:51.859Z,14.48
